Time;durP1;ratioP1;P1;durP2;ratioP2;P2;SDS_P1;SDS_P2;PMS_P1;PMS_P2;Temp;Humidity;BMP_temperature;BMP_pressure;BME280_temperature;BME280_humidity;BME280_pressure;Samples;Min_cycle;Max_cycle;Signal;HPM_P1;HPM_P2
2022/04/16 00:01:34;;;;;;;2.20;2.10;;;13.30;27.00;;;;;;10382207;28;20234;-77
2022/04/16 00:06:39;;;;;;;2.20;2.00;;;13.20;27.20;;;;;;10380814;28;20263;-77
2022/04/16 00:11:42;;;;;;;2.30;2.10;;;13.20;27.50;;;;;;10377434;28;20222;-77
2022/04/16 00:16:47;;;;;;;2.30;2.10;;;13.10;27.30;;;;;;10382904;28;20710;-77
2022/04/16 00:21:51;;;;;;;2.33;2.13;;;13.00;27.30;;;;;;10384988;28;20234;-77
2022/04/16 00:26:54;;;;;;;2.30;2.07;;;12.90;27.50;;;;;;10378583;28;20237;-78
2022/04/16 00:31:58;;;;;;;2.40;2.20;;;12.80;27.50;;;;;;10384614;28;20226;-77
2022/04/16 00:37:02;;;;;;;2.30;2.10;;;12.80;27.50;;;;;;10377451;28;20230;-77
2022/04/16 00:42:06;;;;;;;2.30;2.10;;;12.70;27.70;;;;;;10380723;28;20401;-77
2022/04/16 00:47:09;;;;;;;2.80;2.60;;;12.70;27.60;;;;;;10390344;28;20225;-77
2022/04/16 00:52:14;;;;;;;2.50;2.30;;;12.70;27.80;;;;;;10381923;28;20723;-77
2022/04/16 00:57:19;;;;;;;2.43;2.23;;;12.60;27.80;;;;;;10380173;28;20575;-77
2022/04/16 01:02:22;;;;;;;2.43;2.23;;;12.60;27.80;;;;;;10383428;28;20241;-77
2022/04/16 01:07:27;;;;;;;2.67;2.47;;;12.50;27.60;;;;;;10375258;28;20234;-77
2022/04/16 01:12:30;;;;;;;3.37;3.07;;;12.40;27.90;;;;;;10378802;28;20224;-77
2022/04/16 01:17:34;;;;;;;3.03;2.73;;;12.20;27.60;;;;;;10383455;28;20601;-77
2022/04/16 01:22:40;;;;;;;3.67;3.10;;;12.10;27.70;;;;;;10389131;28;20222;-77
2022/04/16 01:27:45;;;;;;;5.03;3.43;;;11.90;28.10;;;;;;10385871;28;20237;-77
2022/04/16 01:32:49;;;;;;;3.27;2.97;;;11.70;28.10;;;;;;10388321;28;20225;-77
2022/04/16 01:37:54;;;;;;;3.63;3.30;;;11.60;28.20;;;;;;10385614;28;20237;-77
2022/04/16 01:42:57;;;;;;;3.23;2.93;;;11.50;28.50;;;;;;10388757;28;20221;-77
2022/04/16 01:48:01;;;;;;;3.23;2.93;;;11.50;28.40;;;;;;10399470;28;20226;-77
2022/04/16 01:53:05;;;;;;;3.00;2.80;;;11.40;28.30;;;;;;10390965;28;20775;-76
2022/04/16 01:58:09;;;;;;;3.37;3.07;;;11.30;28.80;;;;;;10387452;28;20229;-77
2022/04/16 02:03:12;;;;;;;3.67;3.33;;;11.30;28.70;;;;;;10390168;28;20258;-77
2022/04/16 02:08:17;;;;;;;3.50;3.20;;;11.20;29.10;;;;;;10389015;28;20222;-77
2022/04/16 02:13:20;;;;;;;3.13;2.93;;;11.20;29.10;;;;;;10384493;28;20230;-77
2022/04/16 02:18:23;;;;;;;3.37;3.07;;;11.20;29.10;;;;;;10385821;28;20283;-77
2022/04/16 02:23:28;;;;;;;3.20;2.87;;;11.10;29.00;;;;;;10393146;28;20226;-77
2022/04/16 02:28:31;;;;;;;3.20;2.83;;;11.10;29.40;;;;;;10382722;28;20750;-77
2022/04/16 02:33:34;;;;;;;3.13;2.93;;;11.10;29.10;;;;;;10381062;28;20773;-77
2022/04/16 02:38:40;;;;;;;3.70;3.40;;;11.10;29.10;;;;;;10384258;28;20222;-77
2022/04/16 02:43:43;;;;;;;3.00;2.80;;;11.10;29.70;;;;;;10384055;28;20305;-77
2022/04/16 02:48:46;;;;;;;3.17;2.90;;;11.10;29.40;;;;;;10390620;28;20545;-77
2022/04/16 02:53:52;;;;;;;3.63;3.30;;;11.10;29.40;;;;;;10390429;28;20229;-77
2022/04/16 02:58:55;;;;;;;3.27;2.97;;;11.20;29.80;;;;;;10388735;28;20748;-77
2022/04/16 03:03:58;;;;;;;3.37;3.03;;;11.10;29.40;;;;;;10379883;28;20608;-77
2022/04/16 03:09:02;;;;;;;3.37;3.10;;;11.00;29.40;;;;;;10381644;28;20237;-77
2022/04/16 03:19:23;;;;;;;3.43;3.10;;;10.90;29.90;;;;;;10383631;28;20226;-76
2022/04/16 03:24:27;;;;;;;3.60;3.30;;;10.80;29.90;;;;;;10384426;28;20230;-77
2022/04/16 03:29:30;;;;;;;3.67;3.37;;;10.70;30.10;;;;;;10379795;28;20604;-76
2022/04/16 03:34:33;;;;;;;3.60;3.30;;;10.70;30.20;;;;;;10383414;28;20958;-77
2022/04/16 03:39:38;;;;;;;3.60;3.30;;;10.60;30.30;;;;;;10381317;28;20237;-77
2022/04/16 03:44:41;;;;;;;3.53;3.20;;;10.70;30.80;;;;;;10385989;28;20240;-77
2022/04/16 03:49:44;;;;;;;3.57;3.27;;;10.60;30.50;;;;;;10385484;28;20228;-77
2022/04/16 04:00:11;;;;;;;3.20;2.90;;;10.70;31.10;;;;;;10382928;28;20242;-76
2022/04/16 04:05:14;;;;;;;2.67;2.47;;;10.70;31.00;;;;;;10378508;28;20241;-76
2022/04/16 04:10:19;;;;;;;2.70;2.50;;;10.80;30.90;;;;;;10382056;28;20222;-77
2022/04/16 04:15:23;;;;;;;3.33;3.03;;;10.90;31.30;;;;;;10382051;28;20633;-77
2022/04/16 04:20:27;;;;;;;4.00;2.70;;;11.00;31.10;;;;;;10379535;28;20230;-77
2022/04/16 04:25:32;;;;;;;3.70;3.40;;;11.10;31.00;;;;;;10378925;28;20736;-77
2022/04/16 04:30:35;;;;;;;3.53;3.23;;;11.20;31.70;;;;;;10377485;28;20246;-76
2022/04/16 04:35:39;;;;;;;3.33;3.13;;;11.30;31.20;;;;;;10376994;28;20234;-77
2022/04/16 04:40:43;;;;;;;3.20;2.90;;;11.40;31.20;;;;;;10384463;28;20234;-77
2022/04/16 04:45:48;;;;;;;3.13;2.93;;;11.40;31.40;;;;;;10380466;28;20225;-77
2022/04/16 04:50:51;;;;;;;3.97;3.67;;;11.40;31.20;;;;;;10378828;28;20646;-77
2022/04/16 04:55:56;;;;;;;3.30;3.10;;;11.50;31.20;;;;;;10384888;28;20230;-77
2022/04/16 05:00:59;;;;;;;3.30;3.10;;;11.60;31.70;;;;;;10377972;28;20222;-77
2022/04/16 05:06:02;;;;;;;3.47;3.27;;;11.60;31.60;;;;;;10382204;28;20235;-76
2022/04/16 05:11:07;;;;;;;3.17;2.87;;;11.60;31.60;;;;;;10386755;28;20229;-76
2022/04/16 05:16:10;;;;;;;3.57;3.27;;;11.70;31.90;;;;;;10374753;28;20229;-76
2022/04/16 05:21:13;;;;;;;3.57;3.23;;;11.70;31.60;;;;;;10380533;28;20248;-76
2022/04/16 05:26:18;;;;;;;3.70;3.40;;;11.80;31.60;;;;;;10378078;28;20230;-77
2022/04/16 05:31:24;;;;;;;3.20;3.00;;;11.70;32.00;;;;;;10388876;28;20662;-77
2022/04/16 05:36:27;;;;;;;3.20;3.00;;;11.80;31.80;;;;;;10381153;28;20640;-77
2022/04/16 05:41:33;;;;;;;4.40;4.00;;;11.80;31.60;;;;;;10371573;28;20859;-77
2022/04/16 05:46:36;;;;;;;4.60;3.80;;;11.80;32.20;;;;;;10376316;28;20231;-77
2022/04/16 05:51:39;;;;;;;6.07;3.80;;;11.80;31.90;;;;;;10381804;28;20283;-77
2022/04/16 05:56:44;;;;;;;3.80;3.50;;;11.80;32.10;;;;;;10373452;28;20225;-77
2022/04/16 06:01:47;;;;;;;4.00;3.70;;;11.90;32.50;;;;;;10389397;28;20226;-77
2022/04/16 06:06:51;;;;;;;4.10;3.80;;;12.00;32.20;;;;;;10387832;28;20296;-77
2022/04/16 06:12:01;;;;;;;3.60;3.30;;;12.00;32.20;;;;;;10382160;28;20223;-77
2022/04/16 06:17:05;;;;;;;3.73;3.43;;;12.10;33.30;;;;;;10385123;28;20700;-76
2022/04/16 06:22:08;;;;;;;4.00;3.70;;;12.10;32.40;;;;;;10388832;28;20659;-77
2022/04/16 06:27:13;;;;;;;4.00;3.63;;;12.20;32.40;;;;;;10386782;28;20583;-77
2022/04/16 06:32:16;;;;;;;4.13;3.73;;;12.20;32.80;;;;;;10384070;28;20237;-76
2022/04/16 06:37:19;;;;;;;4.73;4.33;;;12.20;32.70;;;;;;10382800;28;20312;-77
2022/04/16 06:42:23;;;;;;;4.37;4.03;;;12.20;32.60;;;;;;10382151;28;20722;-77
2022/04/16 06:47:29;;;;;;;4.73;4.33;;;12.20;33.30;;;;;;10394391;28;20244;-77
2022/04/16 06:52:32;;;;;;;5.67;4.40;;;12.20;32.90;;;;;;10381121;28;20839;-77
2022/04/16 06:57:36;;;;;;;4.37;3.97;;;12.20;33.10;;;;;;10381979;28;20249;-78
2022/04/16 07:02:41;;;;;;;4.87;4.47;;;12.20;33.70;;;;;;10380902;28;20238;-77
2022/04/16 07:07:44;;;;;;;4.70;4.30;;;12.20;33.40;;;;;;10382842;28;20230;-77
2022/04/16 07:12:49;;;;;;;5.17;4.70;;;12.20;33.70;;;;;;10389046;28;20230;-77
2022/04/16 07:17:52;;;;;;;4.80;4.40;;;12.20;34.10;;;;;;10390018;28;20273;-76
2022/04/16 07:22:55;;;;;;;4.63;4.23;;;12.20;33.80;;;;;;10386370;28;20237;-76
2022/04/16 07:28:00;;;;;;;4.90;4.50;;;12.20;33.80;;;;;;10383141;28;20246;-76
2022/04/16 07:33:03;;;;;;;4.13;3.83;;;12.30;34.50;;;;;;10384665;28;20232;-76
2022/04/16 07:38:06;;;;;;;3.87;3.60;;;12.30;33.80;;;;;;10384673;28;20241;-77
2022/04/16 07:43:11;;;;;;;4.17;3.63;;;12.30;33.70;;;;;;10389247;28;20236;-77
2022/04/16 07:48:14;;;;;;;4.00;3.60;;;12.30;33.80;;;;;;10389440;28;20230;-77
2022/04/16 07:53:17;;;;;;;3.97;3.67;;;12.40;33.60;;;;;;10384685;28;20230;-78
2022/04/16 07:58:22;;;;;;;3.57;3.33;;;12.50;33.70;;;;;;10379214;28;20234;-75
2022/04/16 08:03:25;;;;;;;3.70;3.40;;;12.50;33.90;;;;;;10383545;28;20233;-75
2022/04/16 08:08:29;;;;;;;3.30;3.10;;;12.60;33.60;;;;;;10380969;28;20593;-75
2022/04/16 08:13:33;;;;;;;4.27;3.33;;;12.70;33.50;;;;;;10387903;28;20284;-75
2022/04/16 08:18:38;;;;;;;3.50;3.20;;;12.70;33.70;;;;;;10381957;28;20318;-75
2022/04/16 08:23:55;;;;;;;3.30;3.10;;;12.80;33.60;;;;;;10387044;28;20318;-75
2022/04/16 08:29:00;;;;;;;3.10;2.80;;;12.90;33.40;;;;;;10381960;28;20594;-75
2022/04/16 08:34:04;;;;;;;3.27;3.07;;;12.90;33.30;;;;;;10377088;28;20595;-75
2022/04/16 08:39:10;;;;;;;3.30;3.00;;;13.00;33.00;;;;;;10378133;28;20710;-75
2022/04/16 08:44:19;;;;;;;2.90;2.70;;;13.00;32.80;;;;;;10371437;28;20238;-75
2022/04/16 08:49:26;;;;;;;3.03;2.80;;;13.10;33.00;;;;;;10384386;28;20231;-75
2022/04/16 08:54:30;;;;;;;3.30;3.07;;;13.10;32.70;;;;;;10388989;28;20225;-75
2022/04/16 08:59:34;;;;;;;3.50;3.20;;;13.20;32.60;;;;;;10377265;28;20602;-75
2022/04/16 09:04:37;;;;;;;3.30;3.10;;;13.20;32.70;;;;;;10381825;28;20226;-75
2022/04/16 09:09:41;;;;;;;3.83;3.43;;;13.30;32.40;;;;;;10389919;28;20897;-75
2022/04/16 09:14:46;;;;;;;3.40;3.10;;;13.30;32.50;;;;;;10379483;28;20226;-75
2022/04/16 09:19:54;;;;;;;3.60;3.30;;;13.40;32.70;;;;;;10375572;28;20222;-75
2022/04/16 09:24:57;;;;;;;3.13;2.93;;;13.50;32.80;;;;;;10386075;28;20245;-75
2022/04/16 09:30:05;;;;;;;3.20;3.00;;;13.70;32.80;;;;;;10382118;28;20230;-75
2022/04/16 09:35:09;;;;;;;3.60;3.30;;;13.80;32.20;;;;;;10394160;28;20275;-75
2022/04/16 09:40:34;;;;;;;3.27;3.07;;;14.00;31.90;;;;;;10389255;28;20241;-75
2022/04/16 09:45:42;;;;;;;3.23;3.03;;;14.10;32.00;;;;;;10391001;28;20308;-75
2022/04/16 09:50:46;;;;;;;3.33;3.13;;;14.20;31.80;;;;;;10396654;28;20219;-75
2022/04/16 09:55:49;;;;;;;3.40;3.20;;;14.30;31.50;;;;;;10395705;28;20232;-75
2022/04/16 10:00:54;;;;;;;3.90;3.60;;;14.30;31.50;;;;;;10395940;28;20979;-75
2022/04/16 10:06:07;;;;;;;4.40;4.00;;;14.30;31.50;;;;;;10389225;28;20233;-75
2022/04/16 10:11:19;;;;;;;4.60;4.20;;;14.30;31.50;;;;;;10390225;28;20225;-75
2022/04/16 10:16:33;;;;;;;4.50;4.10;;;14.20;31.40;;;;;;10390358;28;20232;-76
2022/04/16 10:21:36;;;;;;;4.67;4.27;;;14.20;31.40;;;;;;10385429;28;20230;-75
2022/04/16 10:26:43;;;;;;;4.73;4.33;;;14.20;31.40;;;;;;10387891;28;20229;-75
2022/04/16 10:31:51;;;;;;;5.20;4.80;;;14.10;31.30;;;;;;10385693;28;20240;-75
2022/04/16 10:36:56;;;;;;;5.30;4.90;;;14.10;31.20;;;;;;10385427;28;20282;-75
2022/04/16 10:42:01;;;;;;;5.07;4.67;;;14.10;31.00;;;;;;10386336;28;20238;-75
2022/04/16 10:47:05;;;;;;;5.70;5.20;;;14.00;31.20;;;;;;10386977;28;20229;-75
2022/04/16 10:52:19;;;;;;;5.60;5.10;;;14.00;31.20;;;;;;10395846;28;20226;-75
2022/04/16 10:57:23;;;;;;;5.27;4.77;;;13.90;31.10;;;;;;10385209;28;20237;-75
2022/04/16 11:02:30;;;;;;;5.40;4.90;;;13.90;31.10;;;;;;10393992;28;20225;-75
2022/04/16 11:07:36;;;;;;;5.77;5.27;;;13.90;31.10;;;;;;10383592;28;20231;-75
2022/04/16 11:12:40;;;;;;;5.53;5.03;;;14.00;31.20;;;;;;10388886;28;20233;-77
2022/04/16 11:17:44;;;;;;;5.13;4.73;;;14.00;31.20;;;;;;10384707;28;20234;-75
2022/04/16 11:22:47;;;;;;;5.20;4.77;;;14.10;31.30;;;;;;10386198;28;20314;-75
2022/04/16 11:38:39;;;;;;;4.87;4.47;;;14.50;30.90;;;;;;10371512;28;20313;-76
2022/04/16 11:43:48;;;;;;;4.77;4.37;;;14.50;30.60;;;;;;10373665;28;20244;-76
2022/04/16 11:48:53;;;;;;;4.80;4.40;;;14.60;30.30;;;;;;10378475;28;20222;-76
2022/04/16 11:53:56;;;;;;;4.30;4.00;;;14.70;30.10;;;;;;10374852;28;20769;-76
2022/04/16 11:59:00;;;;;;;4.47;4.07;;;14.70;30.30;;;;;;10372533;28;20229;-75
2022/04/16 12:04:09;;;;;;;4.07;3.77;;;14.80;30.20;;;;;;10375040;28;20222;-75
2022/04/16 12:09:12;;;;;;;3.90;3.60;;;14.90;29.90;;;;;;10381521;28;20550;-76
2022/04/16 12:14:18;;;;;;;4.33;4.03;;;15.00;30.00;;;;;;10376516;28;20787;-76
2022/04/16 12:19:23;;;;;;;3.93;3.63;;;15.00;29.70;;;;;;10383378;28;20230;-76
2022/04/16 12:24:28;;;;;;;3.80;3.50;;;15.00;29.60;;;;;;10376171;28;20237;-76
2022/04/16 12:29:31;;;;;;;4.00;3.17;;;15.00;29.60;;;;;;10373574;28;20225;-75
2022/04/16 12:34:39;;;;;;;3.63;3.37;;;15.00;29.70;;;;;;10384752;28;20692;-76
2022/04/16 12:39:42;;;;;;;4.93;3.50;;;15.00;29.60;;;;;;10384173;28;20229;-75
2022/04/16 12:44:45;;;;;;;3.57;3.37;;;15.00;29.70;;;;;;10377566;28;20347;-75
2022/04/16 12:49:50;;;;;;;3.33;3.13;;;15.10;29.50;;;;;;10383825;28;20244;-75
2022/04/16 12:54:53;;;;;;;4.10;3.70;;;15.10;29.30;;;;;;10384010;28;20226;-76
2022/04/16 12:59:56;;;;;;;3.60;3.30;;;15.10;29.20;;;;;;10378891;28;20416;-75
2022/04/16 13:05:01;;;;;;;3.37;3.17;;;15.10;29.30;;;;;;10387048;28;20226;-76
2022/04/16 13:10:05;;;;;;;3.87;3.53;;;15.10;28.80;;;;;;10382615;28;20588;-75
2022/04/16 13:15:10;;;;;;;3.60;3.30;;;15.20;29.00;;;;;;10383829;28;20246;-75
2022/04/16 13:20:15;;;;;;;2.97;2.77;;;15.20;28.90;;;;;;10383486;28;20695;-75
2022/04/16 13:25:18;;;;;;;2.90;2.70;;;15.30;28.10;;;;;;10384285;28;20232;-75
2022/04/16 13:30:21;;;;;;;3.10;2.90;;;15.30;28.20;;;;;;10377396;28;20226;-76
2022/04/16 13:35:25;;;;;;;3.13;2.93;;;15.40;27.80;;;;;;10381229;28;20230;-76
2022/04/16 13:45:49;;;;;;;3.33;3.13;;;15.50;27.70;;;;;;10381662;28;20590;-75
2022/04/16 13:50:56;;;;;;;3.80;3.50;;;15.50;27.60;;;;;;10388940;28;20429;-76
2022/04/16 13:55:59;;;;;;;3.90;3.50;;;15.60;26.80;;;;;;10386768;28;20742;-75
2022/04/16 14:01:02;;;;;;;3.17;2.97;;;15.60;27.20;;;;;;10390103;28;20222;-76
2022/04/16 14:06:07;;;;;;;3.00;2.80;;;15.60;27.30;;;;;;10388739;28;20234;-75
2022/04/16 14:11:10;;;;;;;2.93;2.73;;;15.70;26.50;;;;;;10385673;28;20321;-75
2022/04/16 14:16:14;;;;;;;3.10;2.90;;;15.80;26.90;;;;;;10382334;28;20234;-76
2022/04/16 14:21:18;;;;;;;2.80;2.60;;;15.80;26.90;;;;;;10393298;28;20240;-75
2022/04/16 14:26:22;;;;;;;2.70;2.50;;;15.90;26.20;;;;;;10393364;28;20246;-76
2022/04/16 14:31:25;;;;;;;2.70;2.50;;;15.90;26.50;;;;;;10386919;28;20225;-75
2022/04/16 14:36:29;;;;;;;2.63;2.43;;;16.00;26.60;;;;;;10390363;28;20221;-75
2022/04/16 14:41:33;;;;;;;2.67;2.47;;;16.10;26.20;;;;;;10383053;28;20244;-76
2022/04/16 14:46:37;;;;;;;2.20;2.10;;;16.20;26.20;;;;;;10384305;28;20241;-75
2022/04/16 14:51:43;;;;;;;2.30;2.20;;;16.20;26.20;;;;;;10394391;28;20593;-76
2022/04/16 14:56:46;;;;;;;1.83;1.73;;;16.30;25.60;;;;;;10388812;28;20230;-76
2022/04/16 15:01:49;;;;;;;2.80;1.90;;;16.30;25.60;;;;;;10401369;28;20233;-75
2022/04/16 15:06:54;;;;;;;1.83;1.73;;;16.40;25.30;;;;;;10390354;28;20257;-76
2022/04/16 15:11:57;;;;;;;1.87;1.70;;;16.40;24.60;;;;;;10375288;28;20702;-76
2022/04/16 15:17:00;;;;;;;1.77;1.67;;;16.40;24.60;;;;;;10380571;28;20223;-76
2022/04/16 15:22:08;;;;;;;1.40;1.30;;;16.40;24.40;;;;;;10374237;28;20217;-75
2022/04/16 15:27:11;;;;;;;1.70;1.60;;;16.40;22.90;;;;;;10377550;28;20234;-75
2022/04/16 15:32:14;;;;;;;1.60;1.50;;;16.50;24.30;;;;;;10377764;28;20218;-75
2022/04/16 15:37:22;;;;;;;1.80;1.60;;;16.50;23.50;;;;;;10380582;28;20236;-75
2022/04/16 15:42:26;;;;;;;1.60;1.50;;;16.50;22.90;;;;;;10383907;28;20229;-75
2022/04/16 15:47:29;;;;;;;1.97;1.70;;;16.50;22.90;;;;;;10386320;28;20757;-75
2022/04/16 15:52:34;;;;;;;1.60;1.50;;;16.50;22.90;;;;;;10388127;28;20596;-76
2022/04/16 15:57:37;;;;;;;2.40;2.20;;;16.40;22.40;;;;;;10391634;28;20237;-75
2022/04/16 16:02:40;;;;;;;1.93;1.83;;;16.40;22.90;;;;;;10386162;28;20225;-76
2022/04/16 16:07:45;;;;;;;1.90;1.80;;;16.30;22.50;;;;;;10386281;28;20634;-76
2022/04/16 16:12:49;;;;;;;1.90;1.80;;;16.30;21.60;;;;;;10386233;28;20577;-76
2022/04/16 16:17:52;;;;;;;2.40;2.20;;;16.20;21.90;;;;;;10391121;28;20754;-75
2022/04/16 16:22:58;;;;;;;2.47;2.30;;;16.10;22.30;;;;;;10389174;28;20226;-75
2022/04/16 16:28:01;;;;;;;2.60;2.40;;;16.00;21.90;;;;;;10387397;28;20231;-76
2022/04/16 16:33:05;;;;;;;2.80;2.60;;;15.90;22.40;;;;;;10381316;28;20230;-75
2022/04/16 16:38:10;;;;;;;3.07;2.87;;;15.90;22.10;;;;;;10386720;28;20714;-75
2022/04/16 16:43:13;;;;;;;3.40;2.83;;;15.80;21.40;;;;;;10377171;28;20234;-75
2022/04/16 16:48:16;;;;;;;2.70;2.50;;;15.70;21.50;;;;;;10383514;28;20233;-75
2022/04/16 16:53:21;;;;;;;2.57;2.43;;;15.60;21.30;;;;;;10381752;28;20876;-76
2022/04/16 16:58:24;;;;;;;3.43;2.97;;;15.50;20.90;;;;;;10389537;28;20817;-75
2022/04/16 17:08:51;;;;;;;3.97;2.80;;;15.40;21.50;;;;;;10377218;28;20225;-75
2022/04/16 17:18:38;;;;;;;3.27;3.07;;;15.30;21.40;;;;;;10382127;28;20236;-75
2022/04/16 17:19:21;;;;;;;2.90;2.70;;;15.30;21.60;;;;;;10380326;28;20225;-75
2022/04/16 17:24:27;;;;;;;3.30;2.77;;;15.20;21.00;;;;;;10386387;28;20225;-75
2022/04/16 17:29:30;;;;;;;3.10;2.80;;;15.10;21.30;;;;;;10383536;28;20232;-75
2022/04/16 17:34:34;;;;;;;2.30;2.20;;;15.00;21.80;;;;;;10385204;28;20225;-76
2022/04/16 17:39:38;;;;;;;2.80;2.60;;;14.90;21.90;;;;;;10378689;28;20596;-75
2022/04/16 17:44:42;;;;;;;2.60;2.40;;;14.80;21.80;;;;;;10381407;28;20236;-76
2022/04/16 17:49:45;;;;;;;2.70;2.50;;;14.60;21.70;;;;;;10381497;28;20218;-75
2022/04/16 17:54:50;;;;;;;2.73;2.53;;;14.40;21.50;;;;;;10386946;28;20217;-75
2022/04/16 17:59:53;;;;;;;3.13;2.93;;;14.30;21.50;;;;;;10394878;28;20226;-76
2022/04/16 18:04:56;;;;;;;3.30;3.00;;;14.20;21.70;;;;;;10396876;28;20240;-76
2022/04/16 18:10:01;;;;;;;3.83;3.37;;;14.10;21.80;;;;;;10398549;28;20232;-75
2022/04/16 18:15:05;;;;;;;3.57;3.10;;;14.10;21.50;;;;;;10399320;28;20707;-75
2022/04/16 18:20:10;;;;;;;5.27;3.90;;;14.00;21.90;;;;;;10394722;28;20872;-75
2022/04/16 18:25:15;;;;;;;2.53;2.33;;;13.90;21.90;;;;;;10397486;28;20233;-75
2022/04/16 18:30:19;;;;;;;2.47;2.27;;;13.90;22.00;;;;;;10396558;28;20290;-76
2022/04/16 18:35:23;;;;;;;2.70;2.47;;;13.90;22.30;;;;;;10383260;28;20242;-76
2022/04/16 18:40:28;;;;;;;2.20;2.00;;;13.80;22.20;;;;;;10380121;28;20246;-75
2022/04/16 18:45:33;;;;;;;2.00;1.90;;;13.80;22.10;;;;;;10380106;28;20253;-76
2022/04/16 18:50:37;;;;;;;4.50;2.20;;;13.80;22.50;;;;;;10386766;28;20265;-75
2022/04/16 18:55:41;;;;;;;2.80;2.50;;;13.70;22.30;;;;;;10394941;28;20229;-76
2022/04/16 19:11:30;;;;;;;1.77;1.57;;;13.50;22.40;;;;;;10387607;28;20268;-75
2022/04/16 19:16:53;;;;;;;2.07;1.93;;;13.40;22.40;;;;;;10380220;28;20225;-75
2022/04/16 19:22:01;;;;;;;2.50;2.07;;;13.40;22.40;;;;;;10390156;28;20226;-76
2022/04/16 19:27:06;;;;;;;2.50;2.30;;;13.30;22.30;;;;;;10395480;28;20240;-75
2022/04/16 19:32:10;;;;;;;2.60;2.10;;;13.20;22.30;;;;;;10386919;28;20235;-75
2022/04/16 19:37:15;;;;;;;3.00;2.63;;;13.10;22.40;;;;;;10386898;28;20292;-75
2022/04/16 19:42:19;;;;;;;2.20;2.00;;;13.10;22.50;;;;;;10389583;28;20254;-76
2022/04/16 19:47:24;;;;;;;2.27;1.90;;;13.00;22.40;;;;;;10378250;28;20588;-75
2022/04/16 19:52:27;;;;;;;2.20;2.00;;;12.90;22.30;;;;;;10385972;28;20226;-76
2022/04/16 19:57:32;;;;;;;2.83;2.30;;;12.90;22.60;;;;;;10388756;28;20228;-76
2022/04/16 20:02:36;;;;;;;2.40;2.20;;;12.80;22.40;;;;;;10389165;28;20246;-75
2022/04/16 20:07:39;;;;;;;3.00;2.80;;;12.70;22.60;;;;;;10385751;28;20221;-75
2022/04/16 20:12:45;;;;;;;2.80;2.60;;;12.60;22.70;;;;;;10388509;28;20226;-75
2022/04/16 20:17:49;;;;;;;3.17;2.47;;;12.60;22.70;;;;;;10383007;28;20222;-75
2022/04/16 20:22:55;;;;;;;2.60;2.07;;;12.50;22.80;;;;;;10390395;28;20222;-75
2022/04/16 20:28:00;;;;;;;3.87;2.00;;;12.50;22.70;;;;;;10391639;28;20229;-76
2022/04/16 20:33:05;;;;;;;2.47;2.07;;;12.40;22.60;;;;;;10385207;28;20597;-75
2022/04/16 20:38:11;;;;;;;2.73;2.10;;;12.30;22.60;;;;;;10376670;28;20239;-75
2022/04/16 20:48:40;;;;;;;3.73;2.67;;;12.10;22.70;;;;;;10372823;28;20238;-75
2022/04/16 20:53:44;;;;;;;2.53;2.33;;;12.00;22.80;;;;;;10370404;28;20313;-75
2022/04/16 20:58:49;;;;;;;2.90;2.60;;;12.00;22.80;;;;;;10375298;28;20767;-75
2022/04/16 21:03:52;;;;;;;5.23;4.67;;;11.90;23.50;;;;;;10371706;28;20227;-75
2022/04/16 21:08:57;;;;;;;5.13;3.77;;;11.90;23.10;;;;;;10379383;28;20218;-75
2022/04/16 21:14:02;;;;;;;3.20;2.90;;;11.80;23.10;;;;;;10378520;28;20232;-75
2022/04/16 21:19:05;;;;;;;3.60;2.97;;;11.80;23.20;;;;;;10378018;28;20769;-74
2022/04/16 21:24:08;;;;;;;2.70;2.50;;;11.70;23.20;;;;;;10375679;28;20612;-74
2022/04/16 21:29:13;;;;;;;3.17;2.97;;;11.60;23.20;;;;;;10376991;28;20226;-73
2022/04/16 21:34:16;;;;;;;3.60;3.30;;;11.60;23.50;;;;;;10384166;28;20607;-73
2022/04/16 21:39:19;;;;;;;2.93;2.70;;;11.50;23.40;;;;;;10384655;28;20253;-73
2022/04/16 21:44:25;;;;;;;2.70;2.50;;;11.40;23.50;;;;;;10377928;28;20233;-73
2022/04/16 21:49:29;;;;;;;2.40;2.20;;;11.30;23.50;;;;;;10377431;28;20260;-73
2022/04/16 21:54:32;;;;;;;2.60;2.40;;;11.30;23.60;;;;;;10380509;28;20605;-73
2022/04/16 21:59:36;;;;;;;3.00;2.80;;;11.30;23.70;;;;;;10384860;28;20222;-73
2022/04/16 22:04:40;;;;;;;2.97;2.67;;;11.20;23.70;;;;;;10382983;28;20251;-76
2022/04/16 22:09:43;;;;;;;2.80;2.60;;;11.10;23.80;;;;;;10392933;28;20243;-75
2022/04/16 22:14:47;;;;;;;2.73;2.53;;;11.10;23.80;;;;;;10390892;28;20222;-75
2022/04/16 22:19:55;;;;;;;3.73;3.00;;;11.00;23.80;;;;;;10388782;28;20221;-77
2022/04/16 22:24:58;;;;;;;3.23;2.93;;;10.90;23.70;;;;;;10389225;28;20226;-76
2022/04/16 22:30:03;;;;;;;3.07;2.87;;;10.80;23.80;;;;;;10397718;28;20233;-78
2022/04/16 22:35:07;;;;;;;3.10;2.80;;;10.70;24.00;;;;;;10386030;28;20226;-79
2022/04/16 22:45:33;;;;;;;3.73;3.37;;;10.50;23.80;;;;;;10392657;28;20236;-78
2022/04/16 22:50:37;;;;;;;3.40;3.10;;;10.40;23.80;;;;;;10396066;28;20228;-78
2022/04/16 22:55:40;;;;;;;3.10;2.80;;;10.30;23.80;;;;;;10387678;28;20233;-78
2022/04/16 23:00:48;;;;;;;3.30;3.00;;;10.00;24.00;;;;;;10388375;28;20232;-78
2022/04/16 23:05:54;;;;;;;4.03;3.47;;;10.00;24.20;;;;;;10381647;28;20230;-72
2022/04/16 23:10:58;;;;;;;3.10;2.90;;;9.90;25.10;;;;;;10378213;28;20229;-72
2022/04/16 23:21:23;;;;;;;4.90;4.33;;;9.80;25.20;;;;;;10383650;28;20226;-71
2022/04/16 23:26:26;;;;;;;4.57;3.87;;;9.80;25.00;;;;;;10383756;28;20229;-72
2022/04/16 23:31:31;;;;;;;4.50;4.10;;;9.70;25.10;;;;;;10381810;28;20236;-72
2022/04/16 23:36:35;;;;;;;5.23;4.77;;;9.60;25.30;;;;;;10374781;28;20761;-72
2022/04/16 23:41:38;;;;;;;4.00;3.37;;;9.50;25.00;;;;;;10379921;28;20237;-72
2022/04/16 23:46:57;;;;;;;3.93;3.00;;;9.40;25.20;;;;;;10376174;28;20599;-72
2022/04/16 23:52:01;;;;;;;3.97;3.67;;;9.30;25.20;;;;;;10379705;28;20234;-72
2022/04/16 23:57:04;;;;;;;3.37;3.07;;;9.20;25.30;;;;;;10376929;28;20613;-73
